Huaquan222 — BSOX — position and weather

sailwx.info

Track history (hours):
 
Tides and Currents Weather Stations Pressure Air Temp Water Temp Dewpoint Dewpoint Depression Visibility Wind Speed Wind Dir Waves Ship Positions

Huaquan222

Last reported at 2014-Dec-20 04:23 UTC. Time now 2014-Dec-20 05:11 UTC.
Position N 22°17' E 113°48'.

Length 67 m; draft 2.1 m.

Type: Dredging. MMSI: 413467440.

Date/timePositionNaut miles runAvg speedWind from/ knotsBaromVisibWave heightAir tempDewpointWater temp
2014-Dec-20 04:23N 22°17' E 113°48'2 1.8
2014-Dec-20 03:33N 22°17' E 113°49'0 0.0
2014-Dec-20 02:33N 22°17' E 113°49'0 0.1
2014-Dec-20 01:33N 22°17' E 113°49'0 0.3
2014-Dec-20 00:33N 22°16' E 113°49'0 0.0
2014-Dec-19 12:21N 22°17' E 113°50'1 1.1
2014-Dec-19 11:33N 22°16' E 113°50'0 0.0
2014-Dec-19 10:30N 22°16' E 113°50'0 0.0
2014-Dec-19 09:33N 22°16' E 113°50'0 0.0
2014-Dec-19 08:26N 22°16' E 113°50'0 0.0
2014-Dec-19 07:33N 22°16' E 113°50'0 0.0
2014-Dec-19 06:33N 22°16' E 113°50'0 0.0
2014-Dec-19 05:33N 22°16' E 113°50'0 0.0
2014-Dec-19 04:33N 22°16' E 113°50'0 0.0
2014-Dec-19 03:33N 22°16' E 113°50'0 0.0
2014-Dec-19 01:32N 22°16' E 113°50'0 0.0
2014-Dec-19 00:14N 22°16' E 113°50'1 0.9
2014-Dec-18 23:23N 22°16' E 113°50'4 4.9
2014-Dec-18 22:33N 22°14' E 113°46'5 4.8
2014-Dec-18 21:33N 22°11' E 113°43'5 4.9
2014-Dec-18 20:33N 22°06' E 113°40'5 4.9
2014-Dec-18 19:27N 22°01' E 113°38'4 5.0
2014-Dec-18 18:33N 21°57' E 113°37'4 2.2
2014-Dec-18 16:32N 21°52' E 113°36'6 5.8
2014-Dec-18 15:31N 21°58' E 113°38'6 6.2
2014-Dec-18 14:33N 22°04' E 113°39'6 6.1
2014-Dec-18 13:33N 22°09' E 113°42'5 5.4
2014-Dec-18 12:33N 22°14' E 113°45'5 4.8
2014-Dec-18 11:33N 22°16' E 113°50'0 0.2
2014-Dec-18 09:33N 22°17' E 113°50'0 0.0
2014-Dec-18 08:33N 22°17' E 113°50'0 0.4
2014-Dec-18 07:33N 22°16' E 113°50'0 0.3
2014-Dec-18 06:33N 22°16' E 113°49'0 0.4
2014-Dec-18 05:32N 22°17' E 113°50'0 0.2
2014-Dec-18 04:33N 22°17' E 113°50'0 0.0
2014-Dec-18 03:31N 22°17' E 113°50'1 0.9
2014-Dec-18 02:33N 22°16' E 113°49'1 0.8
2014-Dec-18 01:33N 22°17' E 113°50'0 0.1
2014-Dec-18 00:32N 22°17' E 113°50'1 0.7
2014-Dec-17 23:33N 22°16' E 113°50'1 0.0
2014-Dec-17 07:32N 22°17' E 113°50'0 0.1
2014-Dec-17 06:31N 22°17' E 113°50'0 0.1
2014-Dec-17 05:30N 22°17' E 113°50'0 0.0
2014-Dec-17 04:33N 22°17' E 113°50'1 0.8
2014-Dec-17 03:33N 22°17' E 113°51'0 0.0
2014-Dec-17 02:22N 22°17' E 113°51'0 0.0
2014-Dec-17 01:33N 22°17' E 113°51'0 0.0
2014-Dec-17 00:30N 22°17' E 113°51'0 0.0
2014-Dec-16 23:33N 22°17' E 113°51'0 0.1
2014-Dec-16 22:33N 22°17' E 113°51'0 0.1
2014-Dec-16 21:33N 22°17' E 113°51'0 0.0
2014-Dec-16 20:33N 22°17' E 113°51'0 0.1
2014-Dec-16 19:33N 22°17' E 113°51'0 0.1
2014-Dec-16 18:33N 22°17' E 113°51'0 0.0
2014-Dec-16 17:33N 22°17' E 113°51'0 0.0
2014-Dec-16 16:33N 22°17' E 113°51'0 0.0
2014-Dec-16 15:33N 22°17' E 113°51'0 0.0
2014-Dec-16 14:33N 22°17' E 113°51'0 0.0
2014-Dec-16 13:30N 22°17' E 113°51'0 0.0
2014-Dec-16 12:33N 22°17' E 113°51'0 0.0
2014-Dec-16 11:33N 22°17' E 113°51'0 0.0
2014-Dec-16 10:33N 22°17' E 113°51'0 0.1
2014-Dec-16 09:33N 22°17' E 113°51'0 0.0
2014-Dec-16 08:32N 22°17' E 113°51'0 0.0
2014-Dec-16 07:33N 22°17' E 113°51'0 0.0
2014-Dec-16 06:33N 22°17' E 113°51'0 0.0
2014-Dec-16 05:30N 22°17' E 113°51'0 0.0
2014-Dec-16 04:33N 22°17' E 113°51'0 0.0
2014-Dec-16 03:32N 22°17' E 113°51'0 0.0
2014-Dec-16 02:32N 22°17' E 113°51'1 0.4
2014-Dec-16 01:09N 22°16' E 113°50'0 0.0
2014-Dec-15 23:33N 22°16' E 113°50'0 0.0
2014-Dec-15 22:33N 22°16' E 113°50'0 0.0
2014-Dec-15 21:33N 22°16' E 113°50'0 0.0
2014-Dec-15 20:33N 22°16' E 113°50'0 0.1
2014-Dec-15 19:33N 22°16' E 113°50'0 0.0
2014-Dec-15 18:33N 22°16' E 113°50'0 0.0
2014-Dec-15 17:33N 22°16' E 113°50'0 0.0
2014-Dec-15 16:33N 22°16' E 113°50'0 0.1
2014-Dec-15 15:34N 22°16' E 113°50'0 0.0
2014-Dec-15 14:33N 22°16' E 113°50'0 0.0
2014-Dec-15 13:33N 22°16' E 113°50'0 0.1
2014-Dec-15 12:33N 22°16' E 113°50'0 0.0
2014-Dec-15 11:33N 22°16' E 113°50'0 0.0
2014-Dec-15 10:34N 22°16' E 113°50'0 0.1
2014-Dec-15 09:33N 22°16' E 113°50'0 0.0
2014-Dec-15 08:33N 22°16' E 113°50'0 0.0
2014-Dec-15 07:31N 22°16' E 113°50'0 0.0
2014-Dec-15 06:33N 22°16' E 113°50'0 0.1
2014-Dec-15 05:34N 22°16' E 113°50'0 0.0
2014-Dec-15 04:33N 22°16' E 113°50'0 0.0
2014-Dec-15 03:33N 22°16' E 113°50'2 1.9
2014-Dec-15 02:29N 22°16' E 113°48'2 0.1
2014-Dec-14 09:29N 22°17' E 113°50'0 0.0
2014-Dec-14 08:33N 22°17' E 113°50'0 0.0
2014-Dec-14 07:33N 22°17' E 113°50'0 0.0
2014-Dec-14 06:33N 22°17' E 113°50'0 0.1
2014-Dec-14 05:33N 22°17' E 113°50'1 0.5
2014-Dec-14 04:33N 22°16' E 113°50'0 0.1
2014-Dec-14 03:33N 22°16' E 113°50'2 2.1
2014-Dec-14 02:33N 22°16' E 113°48'2 1.8
2014-Dec-14 01:33N 22°17' E 113°50'0 0.1
2014-Dec-14 00:33N 22°17' E 113°50'0 0.0
2014-Dec-13 23:33N 22°17' E 113°50'2 0.1
2014-Dec-13 09:19N 22°16' E 113°48'2 2.1
2014-Dec-13 08:32N 22°17' E 113°50'0 0.0
2014-Dec-13 07:30N 22°17' E 113°50'0 0.1
2014-Dec-13 06:33N 22°17' E 113°50'1 0.6
2014-Dec-13 05:31N 22°16' E 113°50'0 0.0
2014-Dec-13 04:33N 22°16' E 113°50'0 0.1
2014-Dec-13 03:32N 22°16' E 113°50'1 1.5
2014-Dec-13 02:33N 22°16' E 113°49'1 0.6
2014-Dec-13 01:34N 22°16' E 113°49'1 0.7
2014-Dec-13 00:32N 22°17' E 113°50'0 0.0
2014-Dec-12 23:33N 22°17' E 113°50'0 0.0
2014-Dec-12 10:07N 22°17' E 113°50'0 0.0
2014-Dec-12 09:19N 22°17' E 113°50'0 0.0
2014-Dec-12 08:31N 22°17' E 113°50'1 0.8
2014-Dec-12 07:33N 22°16' E 113°50'0 0.0
2014-Dec-12 06:33N 22°16' E 113°50'0 0.1
2014-Dec-12 05:33N 22°16' E 113°50'0 0.1
2014-Dec-12 04:33N 22°16' E 113°50'1 0.4
2014-Dec-12 02:33N 22°17' E 113°50'0 0.0
2014-Dec-12 01:33N 22°17' E 113°50'0 0.0
2014-Dec-12 00:31N 22°17' E 113°50'0 0.0
2014-Dec-11 10:33N 22°17' E 113°50'1 0.5
2014-Dec-11 09:30N 22°16' E 113°49'0 0.0
2014-Dec-11 08:32N 22°16' E 113°49'0 0.0
2014-Dec-11 07:33N 22°16' E 113°49'0 0.0
2014-Dec-11 06:33N 22°16' E 113°49'1 0.9
2014-Dec-11 05:11N 22°16' E 113°48'2 2.7
2014-Dec-11 04:30N 22°17' E 113°50'0 0.0
2014-Dec-11 03:32N 22°17' E 113°50'0 0.1
2014-Dec-11 02:32N 22°17' E 113°50'0 0.1
2014-Dec-11 01:33N 22°17' E 113°50'0 0.3
2014-Dec-11 00:33N 22°16' E 113°50'  
Track history (hours):
 
Tides and Currents Weather Stations Pressure Air Temp Water Temp Dewpoint Dewpoint Depression Visibility Wind Speed Wind Dir Waves Ship Positions

Huaquan222

Last reported at 2014-Dec-20 04:23 UTC. Time now 2014-Dec-20 05:11 UTC.
Position N 22°17' E 113°48'.

Length 67 m; draft 2.1 m.

Type: Dredging. MMSI: 413467440.

Date/timePositionNaut miles runAvg speedWind from/ knotsBaromVisibWave heightAir tempDewpointWater temp
2014-Dec-20 04:23N 22°17' E 113°48'2 1.8
2014-Dec-20 03:33N 22°17' E 113°49'0 0.0
2014-Dec-20 02:33N 22°17' E 113°49'0 0.1
2014-Dec-20 01:33N 22°17' E 113°49'0 0.3
2014-Dec-20 00:33N 22°16' E 113°49'0 0.0
2014-Dec-19 12:21N 22°17' E 113°50'1 1.1
2014-Dec-19 11:33N 22°16' E 113°50'0 0.0
2014-Dec-19 10:30N 22°16' E 113°50'0 0.0
2014-Dec-19 09:33N 22°16' E 113°50'0 0.0
2014-Dec-19 08:26N 22°16' E 113°50'0 0.0
2014-Dec-19 07:33N 22°16' E 113°50'0 0.0
2014-Dec-19 06:33N 22°16' E 113°50'0 0.0
2014-Dec-19 05:33N 22°16' E 113°50'0 0.0
2014-Dec-19 04:33N 22°16' E 113°50'0 0.0
2014-Dec-19 03:33N 22°16' E 113°50'0 0.0
2014-Dec-19 01:32N 22°16' E 113°50'0 0.0
2014-Dec-19 00:14N 22°16' E 113°50'1 0.9
2014-Dec-18 23:23N 22°16' E 113°50'4 4.9
2014-Dec-18 22:33N 22°14' E 113°46'5 4.8
2014-Dec-18 21:33N 22°11' E 113°43'5 4.9
2014-Dec-18 20:33N 22°06' E 113°40'5 4.9
2014-Dec-18 19:27N 22°01' E 113°38'4 5.0
2014-Dec-18 18:33N 21°57' E 113°37'4 2.2
2014-Dec-18 16:32N 21°52' E 113°36'6 5.8
2014-Dec-18 15:31N 21°58' E 113°38'6 6.2
2014-Dec-18 14:33N 22°04' E 113°39'6 6.1
2014-Dec-18 13:33N 22°09' E 113°42'5 5.4
2014-Dec-18 12:33N 22°14' E 113°45'5 4.8
2014-Dec-18 11:33N 22°16' E 113°50'0 0.2
2014-Dec-18 09:33N 22°17' E 113°50'0 0.0
2014-Dec-18 08:33N 22°17' E 113°50'0 0.4
2014-Dec-18 07:33N 22°16' E 113°50'0 0.3
2014-Dec-18 06:33N 22°16' E 113°49'0 0.4
2014-Dec-18 05:32N 22°17' E 113°50'0 0.2
2014-Dec-18 04:33N 22°17' E 113°50'0 0.0
2014-Dec-18 03:31N 22°17' E 113°50'1 0.9
2014-Dec-18 02:33N 22°16' E 113°49'1 0.8
2014-Dec-18 01:33N 22°17' E 113°50'0 0.1
2014-Dec-18 00:32N 22°17' E 113°50'1 0.7
2014-Dec-17 23:33N 22°16' E 113°50'1 0.0
2014-Dec-17 07:32N 22°17' E 113°50'0 0.1
2014-Dec-17 06:31N 22°17' E 113°50'0 0.1
2014-Dec-17 05:30N 22°17' E 113°50'0 0.0
2014-Dec-17 04:33N 22°17' E 113°50'1 0.8
2014-Dec-17 03:33N 22°17' E 113°51'0 0.0
2014-Dec-17 02:22N 22°17' E 113°51'0 0.0
2014-Dec-17 01:33N 22°17' E 113°51'0 0.0
2014-Dec-17 00:30N 22°17' E 113°51'0 0.0
2014-Dec-16 23:33N 22°17' E 113°51'0 0.1
2014-Dec-16 22:33N 22°17' E 113°51'0 0.1
2014-Dec-16 21:33N 22°17' E 113°51'0 0.0
2014-Dec-16 20:33N 22°17' E 113°51'0 0.1
2014-Dec-16 19:33N 22°17' E 113°51'0 0.1
2014-Dec-16 18:33N 22°17' E 113°51'0 0.0
2014-Dec-16 17:33N 22°17' E 113°51'0 0.0
2014-Dec-16 16:33N 22°17' E 113°51'0 0.0
2014-Dec-16 15:33N 22°17' E 113°51'0 0.0
2014-Dec-16 14:33N 22°17' E 113°51'0 0.0
2014-Dec-16 13:30N 22°17' E 113°51'0 0.0
2014-Dec-16 12:33N 22°17' E 113°51'0 0.0
2014-Dec-16 11:33N 22°17' E 113°51'0 0.0
2014-Dec-16 10:33N 22°17' E 113°51'0 0.1
2014-Dec-16 09:33N 22°17' E 113°51'0 0.0
2014-Dec-16 08:32N 22°17' E 113°51'0 0.0
2014-Dec-16 07:33N 22°17' E 113°51'0 0.0
2014-Dec-16 06:33N 22°17' E 113°51'0 0.0
2014-Dec-16 05:30N 22°17' E 113°51'0 0.0
2014-Dec-16 04:33N 22°17' E 113°51'0 0.0
2014-Dec-16 03:32N 22°17' E 113°51'0 0.0
2014-Dec-16 02:32N 22°17' E 113°51'1 0.4
2014-Dec-16 01:09N 22°16' E 113°50'0 0.0
2014-Dec-15 23:33N 22°16' E 113°50'0 0.0
2014-Dec-15 22:33N 22°16' E 113°50'0 0.0
2014-Dec-15 21:33N 22°16' E 113°50'0 0.0
2014-Dec-15 20:33N 22°16' E 113°50'0 0.1
2014-Dec-15 19:33N 22°16' E 113°50'0 0.0
2014-Dec-15 18:33N 22°16' E 113°50'0 0.0
2014-Dec-15 17:33N 22°16' E 113°50'0 0.0
2014-Dec-15 16:33N 22°16' E 113°50'0 0.1
2014-Dec-15 15:34N 22°16' E 113°50'0 0.0
2014-Dec-15 14:33N 22°16' E 113°50'0 0.0
2014-Dec-15 13:33N 22°16' E 113°50'0 0.1
2014-Dec-15 12:33N 22°16' E 113°50'0 0.0
2014-Dec-15 11:33N 22°16' E 113°50'0 0.0
2014-Dec-15 10:34N 22°16' E 113°50'0 0.1
2014-Dec-15 09:33N 22°16' E 113°50'0 0.0
2014-Dec-15 08:33N 22°16' E 113°50'0 0.0
2014-Dec-15 07:31N 22°16' E 113°50'0 0.0
2014-Dec-15 06:33N 22°16' E 113°50'0 0.1
2014-Dec-15 05:34N 22°16' E 113°50'0 0.0
2014-Dec-15 04:33N 22°16' E 113°50'0 0.0
2014-Dec-15 03:33N 22°16' E 113°50'2 1.9
2014-Dec-15 02:29N 22°16' E 113°48'2 0.1
2014-Dec-14 09:29N 22°17' E 113°50'0 0.0
2014-Dec-14 08:33N 22°17' E 113°50'0 0.0
2014-Dec-14 07:33N 22°17' E 113°50'0 0.0
2014-Dec-14 06:33N 22°17' E 113°50'0 0.1
2014-Dec-14 05:33N 22°17' E 113°50'1 0.5
2014-Dec-14 04:33N 22°16' E 113°50'0 0.1
2014-Dec-14 03:33N 22°16' E 113°50'2 2.1
2014-Dec-14 02:33N 22°16' E 113°48'2 1.8
2014-Dec-14 01:33N 22°17' E 113°50'0 0.1
2014-Dec-14 00:33N 22°17' E 113°50'0 0.0
2014-Dec-13 23:33N 22°17' E 113°50'2 0.1
2014-Dec-13 09:19N 22°16' E 113°48'2 2.1
2014-Dec-13 08:32N 22°17' E 113°50'0 0.0
2014-Dec-13 07:30N 22°17' E 113°50'0 0.1
2014-Dec-13 06:33N 22°17' E 113°50'1 0.6
2014-Dec-13 05:31N 22°16' E 113°50'0 0.0
2014-Dec-13 04:33N 22°16' E 113°50'0 0.1
2014-Dec-13 03:32N 22°16' E 113°50'1 1.5
2014-Dec-13 02:33N 22°16' E 113°49'1 0.6
2014-Dec-13 01:34N 22°16' E 113°49'1 0.7
2014-Dec-13 00:32N 22°17' E 113°50'0 0.0
2014-Dec-12 23:33N 22°17' E 113°50'0 0.0
2014-Dec-12 10:07N 22°17' E 113°50'0 0.0
2014-Dec-12 09:19N 22°17' E 113°50'0 0.0
2014-Dec-12 08:31N 22°17' E 113°50'1 0.8
2014-Dec-12 07:33N 22°16' E 113°50'0 0.0
2014-Dec-12 06:33N 22°16' E 113°50'0 0.1
2014-Dec-12 05:33N 22°16' E 113°50'0 0.1
2014-Dec-12 04:33N 22°16' E 113°50'1 0.4
2014-Dec-12 02:33N 22°17' E 113°50'0 0.0
2014-Dec-12 01:33N 22°17' E 113°50'0 0.0
2014-Dec-12 00:31N 22°17' E 113°50'0 0.0
2014-Dec-11 10:33N 22°17' E 113°50'1 0.5
2014-Dec-11 09:30N 22°16' E 113°49'0 0.0
2014-Dec-11 08:32N 22°16' E 113°49'0 0.0
2014-Dec-11 07:33N 22°16' E 113°49'0 0.0
2014-Dec-11 06:33N 22°16' E 113°49'1 0.9
2014-Dec-11 05:11N 22°16' E 113°48'2 2.7
2014-Dec-11 04:30N 22°17' E 113°50'0 0.0
2014-Dec-11 03:32N 22°17' E 113°50'0 0.1
2014-Dec-11 02:32N 22°17' E 113°50'0 0.1
2014-Dec-11 01:33N 22°17' E 113°50'0 0.3
2014-Dec-11 00:33N 22°16' E 113°50'  

Dump ship's entire track history